Time;durP1;ratioP1;P1;durP2;ratioP2;P2;SDS_P1;SDS_P2;PMS_P1;PMS_P2;Temp;Humidity;BMP_temperature;BMP_pressure;BME280_temperature;BME280_humidity;BME280_pressure;Samples;Min_cycle;Max_cycle;Signal;HPM_P1;HPM_P2
2021/08/28 00:01:33;;;;;;;1.00;0.97;;;13.80;99.90;;;;;;4933018;29;20406;-69
2021/08/28 00:03:59;;;;;;;0.88;0.88;;;13.80;99.90;;;;;;4913498;29;20399;-69
2021/08/28 00:06:24;;;;;;;1.13;1.07;;;13.80;99.90;;;;;;4897904;29;20405;-69
2021/08/28 00:08:50;;;;;;;0.82;0.82;;;13.90;99.90;;;;;;4897124;29;20409;-69
2021/08/28 00:11:16;;;;;;;0.80;0.80;;;13.90;99.90;;;;;;4898138;29;20412;-70
2021/08/28 00:13:43;;;;;;;0.90;0.90;;;13.80;99.90;;;;;;4896052;29;20410;-71
2021/08/28 00:16:09;;;;;;;1.10;1.10;;;13.80;99.90;;;;;;4881383;29;20439;-69
2021/08/28 00:18:35;;;;;;;1.10;1.10;;;13.80;99.90;;;;;;4897664;29;20417;-69
2021/08/28 00:21:01;;;;;;;0.90;0.90;;;13.80;99.90;;;;;;4897782;29;20440;-70
2021/08/28 00:23:27;;;;;;;1.00;1.00;;;13.90;99.90;;;;;;4917096;29;20435;-69
2021/08/28 00:25:52;;;;;;;1.00;1.00;;;13.80;99.90;;;;;;4909833;29;20411;-70
2021/08/28 00:28:18;;;;;;;1.27;1.20;;;13.80;99.90;;;;;;4902360;29;20475;-71
2021/08/28 00:30:45;;;;;;;1.00;1.00;;;13.80;99.90;;;;;;4902103;29;20821;-70
2021/08/28 00:33:12;;;;;;;1.13;1.13;;;13.80;99.90;;;;;;4896277;29;20393;-71
2021/08/28 00:35:39;;;;;;;1.40;1.30;;;13.80;99.90;;;;;;4882985;29;20425;-70
2021/08/28 00:38:04;;;;;;;0.97;0.97;;;13.80;99.90;;;;;;4914087;29;20918;-70
2021/08/28 00:40:30;;;;;;;1.08;1.08;;;13.80;99.90;;;;;;4904307;29;20397;-71
2021/08/28 00:42:57;;;;;;;1.00;1.00;;;13.70;99.90;;;;;;4901573;29;20435;-68
2021/08/28 00:45:24;;;;;;;1.35;1.25;;;13.70;99.90;;;;;;4889756;29;20969;-69
2021/08/28 00:47:55;;;;;;;1.40;1.30;;;13.60;99.90;;;;;;4902149;29;20413;-68
2021/08/28 00:50:22;;;;;;;1.40;1.30;;;13.70;99.90;;;;;;4900124;29;20442;-69
2021/08/28 00:52:48;;;;;;;1.10;1.10;;;13.70;99.90;;;;;;4889182;29;20449;-69
2021/08/28 00:55:14;;;;;;;1.00;1.00;;;13.60;99.90;;;;;;4909214;29;20442;-70
2021/08/28 00:57:39;;;;;;;1.23;1.20;;;13.60;99.90;;;;;;4898665;29;20456;-69
2021/08/28 01:00:07;;;;;;;1.00;1.00;;;13.60;99.90;;;;;;4883343;29;20402;-70
2021/08/28 01:02:32;;;;;;;3.03;1.38;;;13.60;99.90;;;;;;4897111;29;20407;-68
2021/08/28 01:05:07;;;;;;;0.90;0.90;;;13.70;99.90;;;;;;4895327;29;20463;-67
2021/08/28 01:07:45;;;;;;;1.00;1.00;;;13.70;99.90;;;;;;4907463;29;20984;-70
2021/08/28 01:10:32;;;;;;;1.15;1.13;;;13.70;99.90;;;;;;4896949;29;20503;-68
2021/08/28 01:13:28;;;;;;;1.03;1.03;;;13.70;99.90;;;;;;4885506;29;20411;-69
2021/08/28 01:15:54;;;;;;;1.50;1.40;;;13.70;99.90;;;;;;4899629;29;20413;-69
2021/08/28 01:18:21;;;;;;;1.20;1.20;;;13.60;99.90;;;;;;4896390;29;20487;-69
2021/08/28 01:20:57;;;;;;;1.10;1.10;;;13.60;99.90;;;;;;4913841;29;20396;-69
2021/08/28 01:23:46;;;;;;;0.88;0.88;;;13.60;99.90;;;;;;4898347;29;20485;-68
2021/08/28 01:27:12;;;;;;;1.17;1.17;;;13.50;99.90;;;;;;4898795;29;20415;-69
2021/08/28 01:29:38;;;;;;;1.10;1.10;;;13.60;99.90;;;;;;4893155;29;20489;-69
2021/08/28 01:32:04;;;;;;;0.97;0.97;;;13.60;99.90;;;;;;4878833;29;20497;-67
2021/08/28 01:34:31;;;;;;;1.67;1.58;;;13.60;99.90;;;;;;4879703;29;20472;-67
2021/08/28 01:36:57;;;;;;;1.15;1.15;;;13.60;99.90;;;;;;4878096;29;20456;-69
2021/08/28 01:39:41;;;;;;;1.20;1.20;;;13.60;99.90;;;;;;4897096;29;20433;-69
2021/08/28 01:42:07;;;;;;;1.15;1.05;;;13.70;99.90;;;;;;4877971;29;20488;-70
2021/08/28 01:44:33;;;;;;;1.10;1.10;;;13.70;99.90;;;;;;4878321;29;20408;-70
2021/08/28 01:46:59;;;;;;;1.08;1.08;;;13.70;99.90;;;;;;4902428;29;20425;-69
2021/08/28 01:49:26;;;;;;;1.00;1.00;;;13.70;99.90;;;;;;4878120;29;20500;-68
2021/08/28 01:51:52;;;;;;;1.10;1.10;;;13.70;99.90;;;;;;4894181;29;20479;-70
2021/08/28 01:54:23;;;;;;;1.00;1.00;;;13.70;99.90;;;;;;4901517;29;20454;-69
2021/08/28 01:56:49;;;;;;;1.02;1.02;;;13.70;99.90;;;;;;4896290;29;20435;-70
2021/08/28 01:59:15;;;;;;;1.10;1.10;;;13.70;99.90;;;;;;4904746;29;20508;-68
2021/08/28 02:01:53;;;;;;;1.00;1.00;;;13.70;99.90;;;;;;4881902;29;20463;-69
2021/08/28 02:04:19;;;;;;;1.00;1.00;;;13.70;99.90;;;;;;4879095;29;21141;-69
2021/08/28 02:06:52;;;;;;;1.20;1.20;;;13.70;99.90;;;;;;4877933;29;20869;-70
2021/08/28 02:09:26;;;;;;;1.15;1.15;;;13.70;99.90;;;;;;4877449;29;21014;-68
2021/08/28 02:12:15;;;;;;;1.20;1.20;;;13.70;99.90;;;;;;4894026;29;20476;-69
2021/08/28 02:15:11;;;;;;;1.42;1.33;;;13.60;99.90;;;;;;4866128;29;20409;-68
2021/08/28 02:17:52;;;;;;;1.13;1.10;;;13.50;99.90;;;;;;4893311;29;20407;-67
2021/08/28 02:20:18;;;;;;;1.52;1.42;;;13.40;99.90;;;;;;4882097;29;20495;-69
2021/08/28 02:22:57;;;;;;;1.00;1.00;;;13.50;99.90;;;;;;4884370;29;20888;-69
2021/08/28 02:25:58;;;;;;;1.00;1.00;;;13.50;99.90;;;;;;4921078;29;20402;-69
2021/08/28 02:28:33;;;;;;;1.30;1.20;;;13.50;99.90;;;;;;4894577;29;20405;-70
2021/08/28 02:31:00;;;;;;;1.27;1.20;;;13.50;99.90;;;;;;4878144;29;20492;-68
2021/08/28 02:33:32;;;;;;;0.93;0.93;;;13.50;99.90;;;;;;4878485;29;20401;-70
2021/08/28 02:35:58;;;;;;;1.30;1.30;;;13.50;99.90;;;;;;4878985;29;20877;-68
2021/08/28 02:38:24;;;;;;;1.05;1.00;;;13.50;99.90;;;;;;4878071;29;20425;-69
2021/08/28 02:40:51;;;;;;;1.57;1.10;;;13.40;99.90;;;;;;4877854;29;20556;-69
2021/08/28 02:43:17;;;;;;;0.98;0.98;;;13.50;99.90;;;;;;4877811;29;20414;-69
2021/08/28 02:45:47;;;;;;;1.08;1.08;;;13.50;99.90;;;;;;4876910;29;20976;-69
2021/08/28 02:48:17;;;;;;;1.83;1.17;;;13.50;99.90;;;;;;4911989;29;20407;-68
2021/08/28 02:50:42;;;;;;;1.40;1.30;;;13.50;99.90;;;;;;4912603;29;20483;-69
2021/08/28 02:53:08;;;;;;;1.40;1.30;;;13.50;99.90;;;;;;4895522;29;20474;-70
2021/08/28 02:55:34;;;;;;;1.50;1.40;;;13.50;99.90;;;;;;4880311;29;20400;-68
2021/08/28 02:58:00;;;;;;;1.45;1.35;;;13.50;99.90;;;;;;4890328;29;20473;-69
2021/08/28 03:00:27;;;;;;;1.00;1.00;;;13.40;99.90;;;;;;4892685;29;20424;-69
2021/08/28 03:02:52;;;;;;;1.05;1.05;;;13.40;99.90;;;;;;4877214;29;20409;-70
2021/08/28 03:05:18;;;;;;;1.35;1.25;;;13.40;99.90;;;;;;4887175;29;20412;-69
2021/08/28 03:07:45;;;;;;;1.23;1.20;;;13.50;99.90;;;;;;4896179;29;20407;-69
2021/08/28 03:10:12;;;;;;;1.38;1.27;;;13.50;99.90;;;;;;4896075;29;20399;-70
2021/08/28 03:12:38;;;;;;;1.10;1.10;;;13.50;99.90;;;;;;4898190;29;20471;-70
2021/08/28 03:15:08;;;;;;;1.00;1.00;;;13.50;99.90;;;;;;4910774;29;20539;-69
2021/08/28 03:17:42;;;;;;;1.40;1.17;;;13.50;99.90;;;;;;4898697;29;20423;-69
2021/08/28 03:20:10;;;;;;;1.15;1.15;;;13.50;99.90;;;;;;4897221;29;20400;-69
2021/08/28 03:22:35;;;;;;;1.40;1.30;;;13.50;99.90;;;;;;4896958;29;20778;-71
2021/08/28 03:25:01;;;;;;;1.55;1.42;;;13.50;99.90;;;;;;4903255;29;20396;-67
2021/08/28 03:27:30;;;;;;;1.35;1.27;;;13.50;99.90;;;;;;4906410;29;20455;-69
2021/08/28 03:29:57;;;;;;;1.58;1.42;;;13.50;99.90;;;;;;4893895;29;20425;-68
2021/08/28 03:32:22;;;;;;;1.58;1.48;;;13.50;99.90;;;;;;4876198;29;20425;-69
2021/08/28 03:34:49;;;;;;;1.10;1.10;;;13.60;99.90;;;;;;4877410;29;20480;-70
2021/08/28 03:37:15;;;;;;;1.93;1.30;;;13.60;99.90;;;;;;4863421;29;20409;-69
2021/08/28 03:39:41;;;;;;;1.50;1.40;;;13.60;99.90;;;;;;4878445;29;20421;-68
2021/08/28 03:42:07;;;;;;;1.13;1.13;;;13.60;99.90;;;;;;4862621;29;20404;-70
2021/08/28 03:44:37;;;;;;;1.92;1.83;;;13.60;99.90;;;;;;4883181;29;20414;-69
2021/08/28 03:47:05;;;;;;;1.67;1.57;;;13.60;99.90;;;;;;4883636;29;20466;-69
2021/08/28 03:49:31;;;;;;;1.65;1.55;;;13.60;99.90;;;;;;4927587;29;20447;-70
2021/08/28 03:51:56;;;;;;;1.50;1.40;;;13.60;99.90;;;;;;4920929;29;20541;-69
2021/08/28 03:54:22;;;;;;;1.60;1.50;;;13.60;99.90;;;;;;4895124;29;20467;-69
2021/08/28 03:56:48;;;;;;;1.70;1.60;;;13.60;99.90;;;;;;4893832;29;20407;-69
2021/08/28 03:59:14;;;;;;;1.50;1.40;;;13.70;99.90;;;;;;4902848;29;20415;-70
2021/08/28 04:01:41;;;;;;;1.52;1.42;;;13.60;99.90;;;;;;4893817;29;20910;-69
2021/08/28 04:04:12;;;;;;;1.80;1.70;;;13.70;99.90;;;;;;4911101;29;20434;-70
2021/08/28 04:06:37;;;;;;;1.52;1.42;;;13.70;99.90;;;;;;4894734;29;20427;-68
2021/08/28 04:09:03;;;;;;;1.97;1.87;;;13.70;99.90;;;;;;4909884;29;20880;-68
2021/08/28 04:11:29;;;;;;;1.77;1.67;;;13.60;99.90;;;;;;4895459;29;20471;-70
2021/08/28 04:13:55;;;;;;;1.80;1.70;;;13.60;99.90;;;;;;4899044;29;20408;-69
2021/08/28 04:16:21;;;;;;;2.03;1.93;;;13.70;99.90;;;;;;4902303;29;20416;-69
2021/08/28 04:18:54;;;;;;;2.13;1.90;;;13.70;99.90;;;;;;4877109;29;20420;-70
2021/08/28 04:21:45;;;;;;;1.92;1.83;;;13.80;99.90;;;;;;4891305;29;20404;-69
2021/08/28 04:24:31;;;;;;;2.13;1.90;;;13.80;99.90;;;;;;4892175;29;21755;-69
2021/08/28 04:27:19;;;;;;;1.83;1.70;;;13.80;99.90;;;;;;4920843;29;20416;-71
2021/08/28 04:29:45;;;;;;;2.80;2.60;;;13.80;99.90;;;;;;4898013;29;20411;-69
2021/08/28 04:32:11;;;;;;;2.72;2.53;;;13.80;99.90;;;;;;4897124;29;20527;-71
2021/08/28 04:34:37;;;;;;;1.90;1.80;;;13.80;99.90;;;;;;4914251;29;20419;-69
2021/08/28 04:37:03;;;;;;;1.83;1.73;;;13.80;99.90;;;;;;4882424;29;21044;-71
2021/08/28 04:39:34;;;;;;;2.10;1.65;;;13.80;99.90;;;;;;4912826;29;20419;-70
2021/08/28 04:42:01;;;;;;;1.75;1.65;;;13.90;99.90;;;;;;4898161;29;20399;-70
2021/08/28 04:44:27;;;;;;;2.00;1.90;;;13.90;99.90;;;;;;4909299;29;20443;-71
2021/08/28 04:46:53;;;;;;;2.20;2.00;;;14.00;99.90;;;;;;4902924;29;20404;-71
2021/08/28 04:49:20;;;;;;;2.20;2.00;;;14.00;99.90;;;;;;4928412;29;20953;-70
2021/08/28 04:52:06;;;;;;;3.33;2.20;;;14.10;99.90;;;;;;4894266;29;20472;-71
2021/08/28 04:54:34;;;;;;;6.20;2.17;;;14.10;99.90;;;;;;4907770;29;20466;-71
2021/08/28 04:57:00;;;;;;;5.97;2.38;;;14.10;99.90;;;;;;4896904;29;20498;-72
2021/08/28 04:59:26;;;;;;;2.30;2.10;;;14.00;99.90;;;;;;4897042;29;20407;-72
2021/08/28 05:02:15;;;;;;;2.50;2.35;;;14.10;99.90;;;;;;4912716;29;20407;-71
2021/08/28 05:04:49;;;;;;;5.75;2.50;;;14.10;99.90;;;;;;4901239;29;20413;-71
2021/08/28 05:07:15;;;;;;;2.80;2.60;;;14.10;99.90;;;;;;4894406;29;20494;-71
2021/08/28 05:09:52;;;;;;;3.15;2.78;;;14.10;99.90;;;;;;4896774;29;20456;-71
2021/08/28 05:12:18;;;;;;;2.75;2.55;;;14.20;99.90;;;;;;4880334;29;20405;-71
2021/08/28 05:14:55;;;;;;;2.90;2.70;;;14.20;99.90;;;;;;4882894;29;20401;-70
2021/08/28 05:17:21;;;;;;;2.90;2.70;;;14.20;99.90;;;;;;4894791;29;20943;-71
2021/08/28 05:19:47;;;;;;;3.20;2.90;;;14.20;99.90;;;;;;4899240;29;20419;-71
2021/08/28 05:22:32;;;;;;;3.55;3.25;;;14.30;99.90;;;;;;4902905;29;20473;-71
2021/08/28 05:25:16;;;;;;;3.75;3.45;;;14.20;99.90;;;;;;4915487;29;20483;-70
2021/08/28 05:27:42;;;;;;;3.95;3.55;;;14.20;99.90;;;;;;4899808;29;20490;-70
2021/08/28 05:30:09;;;;;;;3.85;3.55;;;14.10;99.90;;;;;;4894438;29;20932;-71
2021/08/28 05:32:34;;;;;;;3.72;3.42;;;14.10;99.90;;;;;;4893099;29;20437;-70
2021/08/28 05:35:00;;;;;;;3.73;3.43;;;14.20;99.90;;;;;;4894448;29;20404;-70
2021/08/28 05:37:47;;;;;;;3.92;3.50;;;14.20;99.90;;;;;;4893348;29;20437;-71
2021/08/28 05:40:28;;;;;;;3.90;3.60;;;14.30;99.90;;;;;;4880621;29;20907;-71
2021/08/28 05:42:54;;;;;;;3.80;3.50;;;14.30;99.90;;;;;;4879507;29;20444;-71
2021/08/28 05:45:20;;;;;;;4.50;4.10;;;14.30;99.90;;;;;;4904896;29;20414;-71
2021/08/28 05:47:46;;;;;;;4.27;3.60;;;14.30;99.90;;;;;;4897327;29;20546;-71
2021/08/28 05:50:16;;;;;;;3.50;3.20;;;14.40;99.90;;;;;;4913630;29;20774;-71
2021/08/28 05:52:42;;;;;;;5.10;4.63;;;14.40;99.90;;;;;;4913109;29;20406;-71
2021/08/28 05:55:10;;;;;;;5.23;4.47;;;14.40;99.90;;;;;;4908785;29;20395;-72
2021/08/28 05:57:38;;;;;;;8.15;4.90;;;14.40;99.90;;;;;;4887276;29;20406;-72
2021/08/28 06:00:04;;;;;;;4.18;3.75;;;14.30;99.90;;;;;;4877941;29;20405;-71
2021/08/28 06:02:40;;;;;;;4.33;3.93;;;14.40;99.90;;;;;;4893612;29;20409;-72
2021/08/28 06:05:09;;;;;;;4.38;3.97;;;14.50;99.90;;;;;;4891021;29;20749;-72
2021/08/28 06:07:53;;;;;;;4.40;4.00;;;14.50;99.90;;;;;;4897765;29;20937;-71
2021/08/28 06:10:45;;;;;;;4.83;4.37;;;14.60;99.90;;;;;;4901452;29;20822;-71
2021/08/28 06:13:33;;;;;;;10.38;4.68;;;14.70;99.90;;;;;;4886391;29;20407;-71
2021/08/28 06:16:08;;;;;;;4.78;4.20;;;14.70;99.90;;;;;;4877930;29;20442;-72
2021/08/28 06:18:34;;;;;;;5.00;4.50;;;14.70;99.90;;;;;;4877474;29;20449;-71
2021/08/28 06:21:01;;;;;;;4.35;3.95;;;14.70;99.90;;;;;;4878447;29;20409;-73
2021/08/28 06:23:27;;;;;;;4.60;4.20;;;14.70;99.90;;;;;;4878849;29;20413;-73
2021/08/28 06:26:28;;;;;;;4.35;4.05;;;14.80;99.90;;;;;;4904218;29;20408;-71
2021/08/28 06:28:54;;;;;;;4.80;4.40;;;14.80;99.90;;;;;;4884068;29;20400;-72
2021/08/28 06:31:20;;;;;;;4.30;3.97;;;14.90;99.90;;;;;;4895690;29;20419;-71
2021/08/28 06:33:45;;;;;;;5.07;4.38;;;14.90;99.90;;;;;;4880981;29;20410;-71
2021/08/28 06:36:12;;;;;;;5.00;4.50;;;14.90;99.90;;;;;;4895743;29;20402;-71
2021/08/28 06:39:04;;;;;;;5.22;4.72;;;15.00;99.90;;;;;;4913329;29;20830;-71
2021/08/28 06:41:30;;;;;;;4.97;4.53;;;14.90;99.90;;;;;;4895903;29;20396;-72
2021/08/28 06:44:16;;;;;;;4.38;4.03;;;14.90;99.90;;;;;;4914066;29;21116;-71
2021/08/28 06:47:00;;;;;;;4.13;3.83;;;15.00;99.90;;;;;;4896343;29;20441;-70
2021/08/28 06:49:44;;;;;;;4.90;4.40;;;15.00;99.90;;;;;;4896977;29;20885;-73
2021/08/28 06:52:30;;;;;;;5.75;5.25;;;15.10;99.90;;;;;;4906236;29;20411;-72
2021/08/28 06:55:15;;;;;;;4.20;3.90;;;15.10;99.90;;;;;;4924623;29;20419;-69
2021/08/28 06:57:49;;;;;;;4.80;4.40;;;15.10;99.90;;;;;;4901819;29;20454;-69
2021/08/28 07:00:47;;;;;;;5.30;4.90;;;15.10;99.90;;;;;;4904651;29;20401;-69
2021/08/28 07:03:39;;;;;;;5.93;5.43;;;15.20;99.90;;;;;;4903199;29;20403;-69
2021/08/28 07:06:04;;;;;;;4.93;4.37;;;15.30;99.90;;;;;;4890933;29;20396;-69
2021/08/28 07:08:30;;;;;;;5.30;4.80;;;15.20;99.90;;;;;;4897633;29;20455;-69
2021/08/28 07:10:56;;;;;;;5.05;4.55;;;15.30;99.90;;;;;;4907734;29;20431;-69
2021/08/28 07:13:22;;;;;;;5.55;4.90;;;15.40;99.90;;;;;;4889669;29;20438;-69
2021/08/28 07:15:48;;;;;;;5.00;4.60;;;15.40;99.90;;;;;;4886663;29;20414;-69
2021/08/28 07:18:16;;;;;;;5.63;5.13;;;15.40;99.90;;;;;;4889433;29;20442;-69
2021/08/28 07:20:42;;;;;;;5.30;4.80;;;15.40;99.90;;;;;;4917652;29;20909;-69
2021/08/28 07:23:09;;;;;;;5.10;4.60;;;15.40;99.90;;;;;;4908136;29;20472;-69
2021/08/28 07:25:49;;;;;;;6.78;6.05;;;15.50;99.90;;;;;;4895022;29;20432;-69
2021/08/28 07:28:15;;;;;;;4.90;4.50;;;15.60;99.90;;;;;;4891077;29;20409;-70
2021/08/28 07:30:59;;;;;;;5.63;5.13;;;15.60;99.90;;;;;;4903607;29;20940;-72
2021/08/28 07:33:25;;;;;;;5.57;4.57;;;15.60;99.90;;;;;;4892298;29;20411;-72
2021/08/28 07:35:51;;;;;;;6.72;6.00;;;15.70;99.90;;;;;;4892099;29;20411;-70
2021/08/28 07:38:17;;;;;;;7.38;6.57;;;15.70;99.90;;;;;;4901639;29;20413;-70
2021/08/28 07:40:43;;;;;;;6.70;6.10;;;15.70;99.90;;;;;;4886811;29;20408;-70
2021/08/28 07:43:11;;;;;;;7.53;6.70;;;15.60;99.90;;;;;;4865389;29;20425;-70
2021/08/28 07:45:43;;;;;;;7.05;6.35;;;15.60;99.90;;;;;;4902255;29;20400;-70
2021/08/28 07:48:13;;;;;;;8.35;7.45;;;15.70;99.90;;;;;;4896991;29;20951;-70
2021/08/28 07:50:39;;;;;;;5.72;5.22;;;15.70;99.90;;;;;;4888631;29;20427;-69
2021/08/28 07:53:14;;;;;;;6.90;5.63;;;15.70;99.90;;;;;;4888776;29;20440;-70
2021/08/28 07:55:45;;;;;;;6.38;5.78;;;15.90;99.90;;;;;;4882626;29;20413;-70
2021/08/28 07:58:13;;;;;;;6.88;6.28;;;16.00;99.90;;;;;;4885344;29;20993;-69
2021/08/28 08:00:38;;;;;;;6.38;5.75;;;16.20;99.90;;;;;;4897780;29;20397;-70
2021/08/28 08:03:04;;;;;;;5.50;5.03;;;16.40;99.90;;;;;;4892159;29;20393;-70
2021/08/28 08:05:50;;;;;;;5.78;5.22;;;16.50;99.90;;;;;;4902032;29;20396;-71
2021/08/28 08:08:34;;;;;;;5.45;4.95;;;16.60;99.90;;;;;;4913143;29;20794;-69
2021/08/28 08:11:18;;;;;;;4.78;4.38;;;16.80;99.90;;;;;;4917375;29;20410;-69
2021/08/28 08:14:03;;;;;;;5.15;4.75;;;16.80;99.90;;;;;;4907557;29;20430;-68
2021/08/28 08:16:51;;;;;;;5.38;4.88;;;16.80;99.90;;;;;;4898321;29;20804;-68
2021/08/28 08:19:31;;;;;;;4.93;4.47;;;17.00;99.90;;;;;;4911113;29;20475;-69
2021/08/28 08:22:16;;;;;;;5.70;5.20;;;17.10;99.90;;;;;;4929969;29;20391;-68
2021/08/28 08:24:53;;;;;;;5.32;4.82;;;17.20;99.90;;;;;;4901805;29;20399;-68
2021/08/28 08:27:37;;;;;;;4.20;3.90;;;17.40;99.90;;;;;;4924640;29;20414;-68
2021/08/28 08:30:17;;;;;;;4.68;4.18;;;17.70;99.90;;;;;;4908735;29;20415;-69
2021/08/28 08:32:48;;;;;;;4.70;4.30;;;17.90;99.90;;;;;;4913495;29;20574;-69
2021/08/28 08:35:14;;;;;;;4.20;3.80;;;18.00;99.90;;;;;;4895761;29;20488;-68
2021/08/28 08:37:41;;;;;;;3.78;3.47;;;18.20;99.90;;;;;;4894610;29;20405;-68
2021/08/28 08:40:07;;;;;;;8.88;4.70;;;18.20;99.90;;;;;;4898646;29;20406;-68
2021/08/28 08:42:38;;;;;;;14.48;11.65;;;18.20;99.90;;;;;;4879804;29;20460;-69
2021/08/28 08:45:04;;;;;;;12.73;11.48;;;18.20;99.90;;;;;;4894315;29;20476;-68
2021/08/28 08:47:32;;;;;;;5.80;5.30;;;18.20;99.90;;;;;;4882059;29;20496;-68
2021/08/28 08:49:57;;;;;;;5.03;4.63;;;18.40;99.90;;;;;;4894861;29;20475;-68
2021/08/28 08:52:32;;;;;;;4.10;3.80;;;18.50;99.90;;;;;;4890521;29;20725;-68
2021/08/28 08:55:16;;;;;;;5.07;4.67;;;18.60;99.90;;;;;;4894165;29;20843;-68
2021/08/28 08:57:42;;;;;;;4.30;4.00;;;18.60;99.90;;;;;;4881706;29;20476;-67
2021/08/28 09:00:08;;;;;;;4.60;3.83;;;18.70;99.90;;;;;;4903697;29;20739;-68
2021/08/28 09:02:50;;;;;;;3.58;3.30;;;18.80;99.90;;;;;;4901085;29;20468;-68
2021/08/28 09:05:24;;;;;;;3.92;3.63;;;18.80;99.90;;;;;;4895235;29;20392;-68
2021/08/28 09:07:50;;;;;;;3.85;3.55;;;19.00;99.90;;;;;;4894025;29;20397;-68
2021/08/28 09:10:17;;;;;;;3.93;3.53;;;19.10;99.90;;;;;;4898111;29;20408;-67
2021/08/28 09:12:43;;;;;;;4.05;3.75;;;19.10;99.90;;;;;;4898938;29;20399;-72
2021/08/28 09:15:12;;;;;;;4.67;4.27;;;19.20;99.90;;;;;;4912643;29;20409;-68
2021/08/28 09:17:38;;;;;;;4.10;3.80;;;19.10;99.90;;;;;;4903248;29;20407;-68
2021/08/28 09:20:24;;;;;;;3.70;3.40;;;19.10;99.90;;;;;;4903821;29;20437;-68
2021/08/28 09:23:01;;;;;;;3.83;3.53;;;19.20;99.90;;;;;;4909344;29;20970;-67
2021/08/28 09:25:26;;;;;;;3.80;3.50;;;19.20;99.90;;;;;;4911689;29;20495;-67
2021/08/28 09:27:52;;;;;;;3.60;3.30;;;19.30;99.90;;;;;;4920273;29;20452;-68
2021/08/28 09:30:19;;;;;;;3.72;3.42;;;19.40;99.90;;;;;;4926980;29;20411;-70
2021/08/28 09:32:51;;;;;;;4.20;3.67;;;19.50;99.90;;;;;;4929065;29;20879;-68
2021/08/28 09:35:18;;;;;;;3.88;3.58;;;19.50;99.90;;;;;;4928937;29;20981;-68
2021/08/28 09:37:50;;;;;;;3.60;3.30;;;19.30;99.90;;;;;;4896509;29;20395;-67
2021/08/28 09:40:16;;;;;;;3.45;3.22;;;19.40;99.90;;;;;;4913257;29;20471;-68
2021/08/28 09:42:41;;;;;;;3.55;3.25;;;19.60;99.90;;;;;;4897249;29;20740;-67
2021/08/28 09:45:09;;;;;;;3.60;3.30;;;19.80;99.90;;;;;;4892562;29;20837;-69
2021/08/28 09:47:34;;;;;;;3.35;3.10;;;19.70;99.90;;;;;;4897132;29;20396;-69
2021/08/28 09:50:00;;;;;;;4.10;3.77;;;19.80;99.90;;;;;;4927779;29;20845;-67
2021/08/28 09:52:26;;;;;;;3.40;3.10;;;19.90;99.90;;;;;;4912583;29;20403;-68
2021/08/28 09:54:56;;;;;;;3.20;3.00;;;19.90;99.90;;;;;;4908748;29;20399;-67
2021/08/28 09:57:27;;;;;;;2.80;2.60;;;20.00;99.90;;;;;;4922301;29;20404;-67
2021/08/28 09:59:58;;;;;;;2.60;2.40;;;20.00;99.90;;;;;;4895279;29;20413;-67
2021/08/28 10:02:24;;;;;;;3.00;2.80;;;20.00;99.90;;;;;;4910188;29;20413;-67
2021/08/28 10:04:51;;;;;;;3.00;2.70;;;20.00;99.90;;;;;;4909959;29;20399;-67
2021/08/28 10:07:37;;;;;;;2.35;2.15;;;19.90;99.90;;;;;;4908694;29;20496;-67
2021/08/28 10:10:04;;;;;;;2.80;2.60;;;19.70;99.90;;;;;;4906885;29;20901;-67
2021/08/28 10:12:31;;;;;;;3.30;3.00;;;19.70;99.90;;;;;;4895639;29;20905;-67
2021/08/28 10:14:57;;;;;;;2.65;2.45;;;19.40;99.90;;;;;;4911931;29;20438;-67
2021/08/28 10:17:24;;;;;;;2.72;2.53;;;19.20;99.90;;;;;;4909424;29;20752;-66
2021/08/28 10:19:52;;;;;;;3.28;2.97;;;19.10;99.90;;;;;;4892675;29;20418;-66
2021/08/28 10:22:20;;;;;;;2.60;2.40;;;18.90;99.90;;;;;;4895205;29;20415;-67
2021/08/28 10:24:45;;;;;;;2.43;2.23;;;18.90;99.90;;;;;;4904885;29;20969;-67
2021/08/28 10:27:12;;;;;;;2.25;2.15;;;18.80;99.90;;;;;;4899342;29;20534;-66
2021/08/28 10:29:38;;;;;;;2.47;2.28;;;18.90;99.90;;;;;;4911023;29;20484;-67
2021/08/28 10:32:04;;;;;;;2.40;2.27;;;18.90;99.90;;;;;;4891927;29;20568;-67
2021/08/28 10:34:30;;;;;;;2.60;2.40;;;18.90;99.90;;;;;;4907779;29;20472;-66
2021/08/28 10:36:56;;;;;;;2.63;2.43;;;18.90;99.90;;;;;;4893261;29;20402;-67
2021/08/28 10:39:21;;;;;;;3.20;2.90;;;18.70;99.90;;;;;;4908375;29;20421;-67
2021/08/28 10:41:47;;;;;;;2.85;2.50;;;18.60;99.90;;;;;;4892266;29;20406;-67
2021/08/28 10:44:13;;;;;;;2.83;2.63;;;18.50;99.90;;;;;;4895674;29;20440;-67
2021/08/28 10:46:41;;;;;;;2.42;2.22;;;18.40;99.90;;;;;;4894533;29;20416;-67
2021/08/28 10:49:13;;;;;;;2.53;2.33;;;18.40;99.90;;;;;;4926967;29;20459;-67
2021/08/28 10:51:41;;;;;;;2.70;2.50;;;18.30;99.90;;;;;;4907866;29;20413;-68
2021/08/28 10:54:08;;;;;;;2.50;2.30;;;18.20;99.90;;;;;;4904147;29;20442;-67
2021/08/28 10:56:58;;;;;;;2.70;2.50;;;18.20;99.90;;;;;;4884066;29;20780;-67
2021/08/28 10:59:36;;;;;;;2.85;2.65;;;18.20;99.90;;;;;;4908608;29;20421;-68
2021/08/28 11:02:12;;;;;;;2.75;2.55;;;18.10;99.90;;;;;;4861325;29;20401;-68
2021/08/28 11:04:39;;;;;;;3.20;2.90;;;18.00;99.90;;;;;;4860831;29;20419;-68
2021/08/28 11:07:23;;;;;;;2.92;2.72;;;18.00;99.90;;;;;;4876090;29;20941;-68
2021/08/28 11:10:11;;;;;;;3.80;3.47;;;17.90;99.90;;;;;;4891720;29;20433;-68
2021/08/28 11:12:43;;;;;;;3.10;2.90;;;17.80;99.90;;;;;;4892370;29;20409;-68
2021/08/28 11:15:24;;;;;;;3.30;3.00;;;17.70;99.90;;;;;;4908239;29;20397;-69
2021/08/28 11:17:51;;;;;;;3.60;3.30;;;17.70;99.90;;;;;;4892452;29;20409;-68
2021/08/28 11:20:22;;;;;;;2.80;2.60;;;17.70;99.90;;;;;;4892056;29;20851;-68
2021/08/28 11:22:48;;;;;;;2.93;2.73;;;17.80;99.90;;;;;;4877407;29;20397;-68
2021/08/28 11:25:14;;;;;;;3.33;3.03;;;17.80;99.90;;;;;;4896105;29;20412;-68
2021/08/28 11:27:41;;;;;;;2.93;2.73;;;17.80;99.90;;;;;;4893749;29;20407;-68
2021/08/28 11:30:08;;;;;;;3.00;2.80;;;17.90;99.90;;;;;;4876540;29;20448;-68
2021/08/28 11:32:33;;;;;;;2.70;2.50;;;17.90;99.90;;;;;;4876514;29;20818;-68
2021/08/28 11:34:59;;;;;;;3.30;3.00;;;18.00;99.90;;;;;;4893892;29;20509;-68
2021/08/28 11:37:31;;;;;;;3.30;3.00;;;18.00;99.90;;;;;;4876565;29;20397;-69
2021/08/28 11:39:58;;;;;;;3.13;2.92;;;18.00;99.90;;;;;;4892556;29;20427;-69
2021/08/28 11:42:24;;;;;;;3.25;2.95;;;18.00;99.90;;;;;;4860498;29;20417;-68
2021/08/28 11:44:51;;;;;;;3.03;2.83;;;18.00;99.90;;;;;;4888067;29;20404;-68
2021/08/28 11:47:17;;;;;;;3.03;2.83;;;17.90;99.90;;;;;;4922123;29;20403;-68
2021/08/28 11:49:43;;;;;;;4.20;3.90;;;17.90;99.90;;;;;;4924704;29;20786;-68
2021/08/28 11:52:09;;;;;;;2.67;2.47;;;18.10;99.90;;;;;;4926142;29;20400;-68
2021/08/28 11:54:34;;;;;;;3.10;2.87;;;18.00;99.90;;;;;;4889963;29;21189;-68
2021/08/28 11:57:00;;;;;;;3.40;3.10;;;18.10;99.90;;;;;;4907110;29;20411;-68
2021/08/28 11:59:39;;;;;;;3.63;3.33;;;18.20;99.90;;;;;;4925380;29;20426;-69
2021/08/28 12:02:05;;;;;;;3.75;2.72;;;18.30;99.90;;;;;;4925124;29;20929;-68
2021/08/28 12:04:34;;;;;;;3.53;2.53;;;18.40;99.90;;;;;;4888627;29;20427;-68
2021/08/28 12:07:00;;;;;;;2.80;2.60;;;18.50;99.90;;;;;;4899515;29;20746;-68
2021/08/28 12:09:26;;;;;;;4.30;3.90;;;18.50;99.90;;;;;;4910232;29;20463;-68
2021/08/28 12:11:52;;;;;;;3.00;2.80;;;18.50;99.90;;;;;;4926685;29;20415;-68
2021/08/28 12:14:18;;;;;;;2.80;2.60;;;18.50;99.90;;;;;;4905432;29;20885;-68
2021/08/28 12:16:44;;;;;;;3.38;3.17;;;18.70;99.90;;;;;;4893506;29;20423;-68
2021/08/28 12:19:33;;;;;;;3.90;3.60;;;18.80;99.90;;;;;;4876359;29;20420;-68
2021/08/28 12:22:08;;;;;;;3.33;3.03;;;18.90;99.90;;;;;;4875326;29;20428;-68
2021/08/28 12:24:37;;;;;;;2.80;2.60;;;19.10;99.90;;;;;;4909185;29;20403;-68
2021/08/28 12:27:05;;;;;;;2.63;2.42;;;19.20;99.90;;;;;;4920432;29;20527;-68
2021/08/28 12:29:38;;;;;;;2.45;2.30;;;19.20;99.90;;;;;;4894845;29;20413;-67
2021/08/28 12:32:07;;;;;;;2.63;2.43;;;19.20;99.90;;;;;;4890155;29;20414;-67
2021/08/28 12:34:35;;;;;;;3.03;2.80;;;19.20;99.90;;;;;;4908255;29;20474;-67
2021/08/28 12:37:05;;;;;;;3.47;3.20;;;19.20;99.90;;;;;;4906918;29;21120;-68
2021/08/28 12:39:30;;;;;;;3.28;3.00;;;19.00;99.90;;;;;;4887157;29;20486;-68
2021/08/28 12:41:57;;;;;;;4.55;4.00;;;18.90;99.90;;;;;;4864359;29;20405;-68
2021/08/28 12:44:30;;;;;;;4.93;4.45;;;18.90;99.90;;;;;;4877149;29;20411;-68
2021/08/28 12:46:56;;;;;;;2.78;2.53;;;18.90;99.90;;;;;;4910390;29;20416;-68
2021/08/28 12:49:22;;;;;;;2.60;2.40;;;19.00;99.90;;;;;;4908589;29;21131;-68
2021/08/28 12:52:02;;;;;;;2.43;2.23;;;19.10;99.90;;;;;;4876670;29;20406;-70
2021/08/28 12:54:38;;;;;;;3.60;2.50;;;19.30;99.90;;;;;;4905063;29;20485;-68
2021/08/28 12:57:08;;;;;;;1.92;1.83;;;19.40;99.90;;;;;;4864365;29;20899;-68
2021/08/28 13:00:01;;;;;;;2.72;2.53;;;19.50;99.90;;;;;;4893790;29;20557;-68
2021/08/28 13:02:30;;;;;;;2.20;2.10;;;19.50;99.90;;;;;;4899181;29;20410;-68
2021/08/28 13:04:56;;;;;;;2.50;2.30;;;19.50;99.90;;;;;;4879251;29;20396;-68